sensor_id;sensor_type;location;lat;lon;timestamp;temperature;humidity
2100;DHT22;1055;48.854;9.302;2023-08-17T00:01:34;21.30;99.90
2100;DHT22;1055;48.854;9.302;2023-08-17T00:04:00;21.50;99.90
2100;DHT22;1055;48.854;9.302;2023-08-17T00:06:25;21.30;99.90
2100;DHT22;1055;48.854;9.302;2023-08-17T00:08:51;21.30;99.90
2100;DHT22;1055;48.854;9.302;2023-08-17T00:11:17;21.50;99.90
2100;DHT22;1055;48.854;9.302;2023-08-17T00:13:42;21.60;99.90
2100;DHT22;1055;48.854;9.302;2023-08-17T00:16:08;21.70;99.90
2100;DHT22;1055;48.854;9.302;2023-08-17T00:18:34;21.50;99.90
2100;DHT22;1055;48.854;9.302;2023-08-17T00:21:00;21.60;99.90
2100;DHT22;1055;48.854;9.302;2023-08-17T00:23:25;21.20;99.90
2100;DHT22;1055;48.854;9.302;2023-08-17T00:25:51;20.80;99.90
2100;DHT22;1055;48.854;9.302;2023-08-17T00:28:16;20.90;99.90
2100;DHT22;1055;48.854;9.302;2023-08-17T00:30:42;20.80;99.90
2100;DHT22;1055;48.854;9.302;2023-08-17T00:33:08;20.70;99.90
2100;DHT22;1055;48.854;9.302;2023-08-17T00:35:34;20.60;99.90
2100;DHT22;1055;48.854;9.302;2023-08-17T00:38:00;20.20;99.90
2100;DHT22;1055;48.854;9.302;2023-08-17T00:40:26;20.20;99.90
2100;DHT22;1055;48.854;9.302;2023-08-17T00:42:51;20.60;99.90
2100;DHT22;1055;48.854;9.302;2023-08-17T00:45:18;20.50;99.90
2100;DHT22;1055;48.854;9.302;2023-08-17T00:47:44;20.40;99.90
2100;DHT22;1055;48.854;9.302;2023-08-17T00:50:11;20.50;99.90
2100;DHT22;1055;48.854;9.302;2023-08-17T00:52:38;20.40;99.90
2100;DHT22;1055;48.854;9.302;2023-08-17T00:55:04;20.50;99.90
2100;DHT22;1055;48.854;9.302;2023-08-17T00:57:31;20.50;99.90
2100;DHT22;1055;48.854;9.302;2023-08-17T00:59:58;20.40;99.90
2100;DHT22;1055;48.854;9.302;2023-08-17T01:02:24;20.50;99.90
2100;DHT22;1055;48.854;9.302;2023-08-17T01:04:50;20.60;99.90
2100;DHT22;1055;48.854;9.302;2023-08-17T01:07:15;20.50;99.90
2100;DHT22;1055;48.854;9.302;2023-08-17T01:09:41;20.50;99.90
2100;DHT22;1055;48.854;9.302;2023-08-17T01:12:13;20.60;99.90
2100;DHT22;1055;48.854;9.302;2023-08-17T01:15:14;20.80;99.90
2100;DHT22;1055;48.854;9.302;2023-08-17T01:17:48;20.80;99.90
2100;DHT22;1055;48.854;9.302;2023-08-17T01:20:17;20.40;99.90
2100;DHT22;1055;48.854;9.302;2023-08-17T01:22:45;20.40;99.90
2100;DHT22;1055;48.854;9.302;2023-08-17T01:25:13;20.30;99.90
2100;DHT22;1055;48.854;9.302;2023-08-17T01:27:45;20.20;99.90
2100;DHT22;1055;48.854;9.302;2023-08-17T01:30:13;20.10;99.90
2100;DHT22;1055;48.854;9.302;2023-08-17T01:35:37;20.40;99.90
2100;DHT22;1055;48.854;9.302;2023-08-17T01:38:07;20.50;99.90
2100;DHT22;1055;48.854;9.302;2023-08-17T01:40:35;20.00;99.90
2100;DHT22;1055;48.854;9.302;2023-08-17T01:43:02;19.90;99.90
2100;DHT22;1055;48.854;9.302;2023-08-17T01:45:29;19.90;99.90
2100;DHT22;1055;48.854;9.302;2023-08-17T01:47:56;19.80;99.90
2100;DHT22;1055;48.854;9.302;2023-08-17T01:50:22;19.80;99.90
2100;DHT22;1055;48.854;9.302;2023-08-17T01:52:48;20.10;99.90
2100;DHT22;1055;48.854;9.302;2023-08-17T01:55:15;20.30;99.90
2100;DHT22;1055;48.854;9.302;2023-08-17T01:57:41;20.30;99.90
2100;DHT22;1055;48.854;9.302;2023-08-17T02:00:07;20.20;99.90
2100;DHT22;1055;48.854;9.302;2023-08-17T02:02:36;20.30;99.90
2100;DHT22;1055;48.854;9.302;2023-08-17T02:05:01;20.30;99.90
2100;DHT22;1055;48.854;9.302;2023-08-17T02:07:28;20.40;99.90
2100;DHT22;1055;48.854;9.302;2023-08-17T02:09:53;20.40;99.90
2100;DHT22;1055;48.854;9.302;2023-08-17T02:12:22;20.50;99.90
2100;DHT22;1055;48.854;9.302;2023-08-17T02:14:50;20.50;99.90
2100;DHT22;1055;48.854;9.302;2023-08-17T02:17:16;20.40;99.90
2100;DHT22;1055;48.854;9.302;2023-08-17T02:19:45;20.60;99.90
2100;DHT22;1055;48.854;9.302;2023-08-17T02:22:13;20.70;99.90
2100;DHT22;1055;48.854;9.302;2023-08-17T02:24:38;20.80;99.90
2100;DHT22;1055;48.854;9.302;2023-08-17T02:27:04;20.80;99.90
2100;DHT22;1055;48.854;9.302;2023-08-17T02:29:30;20.90;99.90
2100;DHT22;1055;48.854;9.302;2023-08-17T02:31:56;20.90;99.90
2100;DHT22;1055;48.854;9.302;2023-08-17T02:34:23;21.00;99.90
2100;DHT22;1055;48.854;9.302;2023-08-17T02:36:48;21.00;99.90
2100;DHT22;1055;48.854;9.302;2023-08-17T02:39:14;21.00;99.90
2100;DHT22;1055;48.854;9.302;2023-08-17T02:41:40;21.00;99.90
2100;DHT22;1055;48.854;9.302;2023-08-17T02:44:06;20.90;99.90
2100;DHT22;1055;48.854;9.302;2023-08-17T02:46:32;20.90;99.90
2100;DHT22;1055;48.854;9.302;2023-08-17T02:48:57;20.90;99.90
2100;DHT22;1055;48.854;9.302;2023-08-17T02:51:23;20.80;99.90
2100;DHT22;1055;48.854;9.302;2023-08-17T02:53:48;20.80;99.90
2100;DHT22;1055;48.854;9.302;2023-08-17T02:56:15;20.90;99.90
2100;DHT22;1055;48.854;9.302;2023-08-17T02:58:41;20.90;99.90
2100;DHT22;1055;48.854;9.302;2023-08-17T03:01:10;20.90;99.90
2100;DHT22;1055;48.854;9.302;2023-08-17T03:03:35;20.60;99.90
2100;DHT22;1055;48.854;9.302;2023-08-17T03:06:02;20.80;99.90
2100;DHT22;1055;48.854;9.302;2023-08-17T03:08:28;20.60;99.90
2100;DHT22;1055;48.854;9.302;2023-08-17T03:10:54;20.40;99.90
2100;DHT22;1055;48.854;9.302;2023-08-17T03:13:20;20.40;99.90
2100;DHT22;1055;48.854;9.302;2023-08-17T03:15:46;20.30;99.90
2100;DHT22;1055;48.854;9.302;2023-08-17T03:18:11;20.20;99.90
2100;DHT22;1055;48.854;9.302;2023-08-17T03:20:37;20.10;99.90
2100;DHT22;1055;48.854;9.302;2023-08-17T03:23:03;20.00;99.90
2100;DHT22;1055;48.854;9.302;2023-08-17T03:25:32;20.00;99.90
2100;DHT22;1055;48.854;9.302;2023-08-17T03:27:59;20.20;99.90
2100;DHT22;1055;48.854;9.302;2023-08-17T03:30:25;20.30;99.90
2100;DHT22;1055;48.854;9.302;2023-08-17T03:32:50;20.00;99.90
2100;DHT22;1055;48.854;9.302;2023-08-17T03:35:16;20.10;99.90
2100;DHT22;1055;48.854;9.302;2023-08-17T03:37:45;20.10;99.90
2100;DHT22;1055;48.854;9.302;2023-08-17T03:40:10;20.10;99.90
2100;DHT22;1055;48.854;9.302;2023-08-17T03:42:36;20.20;99.90
2100;DHT22;1055;48.854;9.302;2023-08-17T03:45:03;20.30;99.90
2100;DHT22;1055;48.854;9.302;2023-08-17T03:47:29;20.70;99.90
2100;DHT22;1055;48.854;9.302;2023-08-17T03:49:54;20.80;99.90
2100;DHT22;1055;48.854;9.302;2023-08-17T03:52:20;20.90;99.90
2100;DHT22;1055;48.854;9.302;2023-08-17T03:54:46;20.50;99.90
2100;DHT22;1055;48.854;9.302;2023-08-17T04:00:33;20.00;99.90
2100;DHT22;1055;48.854;9.302;2023-08-17T04:02:59;19.90;99.90
2100;DHT22;1055;48.854;9.302;2023-08-17T04:05:24;20.00;99.90
2100;DHT22;1055;48.854;9.302;2023-08-17T04:07:50;20.00;99.90
2100;DHT22;1055;48.854;9.302;2023-08-17T04:10:15;20.20;99.90
2100;DHT22;1055;48.854;9.302;2023-08-17T04:12:41;20.40;99.90
2100;DHT22;1055;48.854;9.302;2023-08-17T04:15:07;20.60;99.90
2100;DHT22;1055;48.854;9.302;2023-08-17T04:17:32;20.80;99.90
2100;DHT22;1055;48.854;9.302;2023-08-17T04:19:58;20.80;99.90
2100;DHT22;1055;48.854;9.302;2023-08-17T04:22:24;20.50;99.90
2100;DHT22;1055;48.854;9.302;2023-08-17T04:24:49;20.70;99.90
2100;DHT22;1055;48.854;9.302;2023-08-17T04:27:15;20.90;99.90
2100;DHT22;1055;48.854;9.302;2023-08-17T04:29:41;21.10;99.90
2100;DHT22;1055;48.854;9.302;2023-08-17T04:32:06;21.30;99.90
2100;DHT22;1055;48.854;9.302;2023-08-17T04:34:32;21.40;99.90
2100;DHT22;1055;48.854;9.302;2023-08-17T04:36:58;21.10;99.90
2100;DHT22;1055;48.854;9.302;2023-08-17T04:39:23;20.90;99.90
2100;DHT22;1055;48.854;9.302;2023-08-17T04:41:49;20.90;99.90
2100;DHT22;1055;48.854;9.302;2023-08-17T04:44:15;20.60;99.90
2100;DHT22;1055;48.854;9.302;2023-08-17T04:46:41;20.70;99.90
2100;DHT22;1055;48.854;9.302;2023-08-17T04:49:06;21.00;99.90
2100;DHT22;1055;48.854;9.302;2023-08-17T04:51:32;20.90;99.90
2100;DHT22;1055;48.854;9.302;2023-08-17T04:53:57;21.00;99.90
2100;DHT22;1055;48.854;9.302;2023-08-17T04:56:23;21.10;99.90
2100;DHT22;1055;48.854;9.302;2023-08-17T04:58:49;21.00;99.90
2100;DHT22;1055;48.854;9.302;2023-08-17T05:01:15;20.90;99.90
2100;DHT22;1055;48.854;9.302;2023-08-17T05:03:42;21.00;99.90
2100;DHT22;1055;48.854;9.302;2023-08-17T05:06:07;21.10;99.90
2100;DHT22;1055;48.854;9.302;2023-08-17T05:08:34;21.20;99.90
2100;DHT22;1055;48.854;9.302;2023-08-17T05:10:59;21.40;99.90
2100;DHT22;1055;48.854;9.302;2023-08-17T05:13:25;21.50;99.90
2100;DHT22;1055;48.854;9.302;2023-08-17T05:15:50;21.60;99.90
2100;DHT22;1055;48.854;9.302;2023-08-17T05:18:16;21.00;99.90
2100;DHT22;1055;48.854;9.302;2023-08-17T05:20:41;20.70;99.90
2100;DHT22;1055;48.854;9.302;2023-08-17T05:23:07;20.70;99.90
2100;DHT22;1055;48.854;9.302;2023-08-17T05:25:33;21.00;99.90
2100;DHT22;1055;48.854;9.302;2023-08-17T05:27:59;21.00;99.90
2100;DHT22;1055;48.854;9.302;2023-08-17T05:30:26;20.70;99.90
2100;DHT22;1055;48.854;9.302;2023-08-17T05:32:53;21.00;99.90
2100;DHT22;1055;48.854;9.302;2023-08-17T05:35:18;21.30;99.90
2100;DHT22;1055;48.854;9.302;2023-08-17T05:37:44;21.50;99.90
2100;DHT22;1055;48.854;9.302;2023-08-17T05:40:10;21.10;99.90
2100;DHT22;1055;48.854;9.302;2023-08-17T05:42:36;20.80;99.90
2100;DHT22;1055;48.854;9.302;2023-08-17T05:45:01;20.70;99.90
2100;DHT22;1055;48.854;9.302;2023-08-17T05:47:27;20.70;99.90
2100;DHT22;1055;48.854;9.302;2023-08-17T05:49:53;21.00;99.90
2100;DHT22;1055;48.854;9.302;2023-08-17T05:52:18;20.90;99.90
2100;DHT22;1055;48.854;9.302;2023-08-17T05:54:45;20.70;99.90
2100;DHT22;1055;48.854;9.302;2023-08-17T05:57:10;20.80;99.90
2100;DHT22;1055;48.854;9.302;2023-08-17T05:59:36;21.10;99.90
2100;DHT22;1055;48.854;9.302;2023-08-17T06:02:02;21.20;99.90
2100;DHT22;1055;48.854;9.302;2023-08-17T06:04:28;21.60;99.90
2100;DHT22;1055;48.854;9.302;2023-08-17T06:06:54;21.80;99.90
2100;DHT22;1055;48.854;9.302;2023-08-17T06:09:20;21.90;99.90
2100;DHT22;1055;48.854;9.302;2023-08-17T06:11:45;21.90;99.90
2100;DHT22;1055;48.854;9.302;2023-08-17T06:14:11;21.80;99.90
2100;DHT22;1055;48.854;9.302;2023-08-17T06:16:37;21.60;99.90
2100;DHT22;1055;48.854;9.302;2023-08-17T06:19:03;21.20;99.90
2100;DHT22;1055;48.854;9.302;2023-08-17T06:21:29;21.20;99.90
2100;DHT22;1055;48.854;9.302;2023-08-17T06:23:54;20.90;99.90
2100;DHT22;1055;48.854;9.302;2023-08-17T06:26:20;20.90;99.90
2100;DHT22;1055;48.854;9.302;2023-08-17T06:28:45;21.00;99.90
2100;DHT22;1055;48.854;9.302;2023-08-17T06:31:14;21.10;99.90
2100;DHT22;1055;48.854;9.302;2023-08-17T06:33:40;21.30;99.90
2100;DHT22;1055;48.854;9.302;2023-08-17T06:36:06;21.40;99.90
2100;DHT22;1055;48.854;9.302;2023-08-17T06:38:31;21.50;99.90
2100;DHT22;1055;48.854;9.302;2023-08-17T06:40:57;21.70;99.90
2100;DHT22;1055;48.854;9.302;2023-08-17T06:43:23;21.80;99.90
2100;DHT22;1055;48.854;9.302;2023-08-17T06:45:48;21.90;99.90
2100;DHT22;1055;48.854;9.302;2023-08-17T06:48:14;22.10;99.90
2100;DHT22;1055;48.854;9.302;2023-08-17T06:50:39;22.40;99.90
2100;DHT22;1055;48.854;9.302;2023-08-17T06:53:05;22.20;99.90
2100;DHT22;1055;48.854;9.302;2023-08-17T06:55:31;22.40;99.90
2100;DHT22;1055;48.854;9.302;2023-08-17T06:57:57;22.40;99.90
2100;DHT22;1055;48.854;9.302;2023-08-17T07:00:22;22.50;99.90
2100;DHT22;1055;48.854;9.302;2023-08-17T07:02:48;22.60;99.90
2100;DHT22;1055;48.854;9.302;2023-08-17T07:05:15;22.70;99.90
2100;DHT22;1055;48.854;9.302;2023-08-17T07:07:41;22.80;99.90
2100;DHT22;1055;48.854;9.302;2023-08-17T07:10:08;22.90;99.90
2100;DHT22;1055;48.854;9.302;2023-08-17T07:12:34;22.90;99.90
2100;DHT22;1055;48.854;9.302;2023-08-17T07:15:00;22.80;99.90
2100;DHT22;1055;48.854;9.302;2023-08-17T07:17:25;22.90;99.90
2100;DHT22;1055;48.854;9.302;2023-08-17T07:19:51;22.90;99.90
2100;DHT22;1055;48.854;9.302;2023-08-17T07:22:17;22.70;99.90
2100;DHT22;1055;48.854;9.302;2023-08-17T07:24:43;22.80;99.90
2100;DHT22;1055;48.854;9.302;2023-08-17T07:27:08;23.00;99.90
2100;DHT22;1055;48.854;9.302;2023-08-17T07:29:34;22.40;99.90
2100;DHT22;1055;48.854;9.302;2023-08-17T07:32:00;22.50;99.90
2100;DHT22;1055;48.854;9.302;2023-08-17T07:34:28;22.60;99.90
2100;DHT22;1055;48.854;9.302;2023-08-17T07:36:55;22.90;99.90
2100;DHT22;1055;48.854;9.302;2023-08-17T07:39:22;22.10;99.90
2100;DHT22;1055;48.854;9.302;2023-08-17T07:41:47;22.40;99.90
2100;DHT22;1055;48.854;9.302;2023-08-17T07:44:13;22.60;99.90
2100;DHT22;1055;48.854;9.302;2023-08-17T07:46:39;22.40;99.90
2100;DHT22;1055;48.854;9.302;2023-08-17T07:49:04;22.40;99.90
2100;DHT22;1055;48.854;9.302;2023-08-17T07:51:30;22.30;99.90
2100;DHT22;1055;48.854;9.302;2023-08-17T07:53:59;22.50;99.90
2100;DHT22;1055;48.854;9.302;2023-08-17T07:56:25;22.70;99.90
2100;DHT22;1055;48.854;9.302;2023-08-17T07:58:51;22.80;99.90
2100;DHT22;1055;48.854;9.302;2023-08-17T08:01:16;23.00;99.90
2100;DHT22;1055;48.854;9.302;2023-08-17T08:03:42;23.20;99.90
2100;DHT22;1055;48.854;9.302;2023-08-17T08:06:08;23.10;99.90
2100;DHT22;1055;48.854;9.302;2023-08-17T08:08:33;23.00;99.90
2100;DHT22;1055;48.854;9.302;2023-08-17T08:10:59;23.10;99.90
2100;DHT22;1055;48.854;9.302;2023-08-17T08:13:26;23.00;99.90
2100;DHT22;1055;48.854;9.302;2023-08-17T08:15:51;23.00;99.90
2100;DHT22;1055;48.854;9.302;2023-08-17T08:18:17;22.80;99.90
2100;DHT22;1055;48.854;9.302;2023-08-17T08:20:42;22.90;99.90
2100;DHT22;1055;48.854;9.302;2023-08-17T08:23:08;23.10;99.90
2100;DHT22;1055;48.854;9.302;2023-08-17T08:25:34;23.10;99.90
2100;DHT22;1055;48.854;9.302;2023-08-17T08:27:59;23.10;99.90
2100;DHT22;1055;48.854;9.302;2023-08-17T08:30:25;23.40;99.90
2100;DHT22;1055;48.854;9.302;2023-08-17T08:32:51;23.50;99.90
2100;DHT22;1055;48.854;9.302;2023-08-17T08:35:17;23.70;99.90
2100;DHT22;1055;48.854;9.302;2023-08-17T08:37:42;23.80;99.90
2100;DHT22;1055;48.854;9.302;2023-08-17T08:40:11;23.80;99.90
2100;DHT22;1055;48.854;9.302;2023-08-17T08:42:38;23.70;99.90
2100;DHT22;1055;48.854;9.302;2023-08-17T08:45:04;23.50;99.90
2100;DHT22;1055;48.854;9.302;2023-08-17T08:47:31;23.50;99.90
2100;DHT22;1055;48.854;9.302;2023-08-17T08:50:00;23.60;99.90
2100;DHT22;1055;48.854;9.302;2023-08-17T08:52:40;23.60;99.90
2100;DHT22;1055;48.854;9.302;2023-08-17T08:55:15;23.80;99.90
2100;DHT22;1055;48.854;9.302;2023-08-17T08:57:41;23.90;99.90
2100;DHT22;1055;48.854;9.302;2023-08-17T09:00:08;23.90;99.90
2100;DHT22;1055;48.854;9.302;2023-08-17T09:02:35;24.10;99.90
2100;DHT22;1055;48.854;9.302;2023-08-17T09:05:01;24.10;99.90
2100;DHT22;1055;48.854;9.302;2023-08-17T09:07:29;24.30;99.90
2100;DHT22;1055;48.854;9.302;2023-08-17T09:09:56;24.30;99.90
2100;DHT22;1055;48.854;9.302;2023-08-17T09:12:22;24.30;99.90
2100;DHT22;1055;48.854;9.302;2023-08-17T09:14:48;24.50;99.90
2100;DHT22;1055;48.854;9.302;2023-08-17T09:17:13;24.60;99.90
2100;DHT22;1055;48.854;9.302;2023-08-17T09:19:39;24.80;99.90
2100;DHT22;1055;48.854;9.302;2023-08-17T09:22:05;24.90;99.90
2100;DHT22;1055;48.854;9.302;2023-08-17T09:24:34;25.00;99.90
2100;DHT22;1055;48.854;9.302;2023-08-17T09:27:02;24.90;99.90
2100;DHT22;1055;48.854;9.302;2023-08-17T09:29:28;24.80;99.90
2100;DHT22;1055;48.854;9.302;2023-08-17T09:32:03;25.00;99.90
2100;DHT22;1055;48.854;9.302;2023-08-17T09:34:31;25.10;99.90
2100;DHT22;1055;48.854;9.302;2023-08-17T09:37:02;25.30;99.90
2100;DHT22;1055;48.854;9.302;2023-08-17T09:39:28;25.30;99.90
2100;DHT22;1055;48.854;9.302;2023-08-17T09:41:55;25.40;99.90
2100;DHT22;1055;48.854;9.302;2023-08-17T09:44:20;25.20;99.90
2100;DHT22;1055;48.854;9.302;2023-08-17T09:46:47;25.10;99.90
2100;DHT22;1055;48.854;9.302;2023-08-17T09:49:13;25.20;99.90
2100;DHT22;1055;48.854;9.302;2023-08-17T09:51:44;25.00;99.90
2100;DHT22;1055;48.854;9.302;2023-08-17T09:54:23;25.10;99.90
2100;DHT22;1055;48.854;9.302;2023-08-17T09:56:52;25.20;99.90
2100;DHT22;1055;48.854;9.302;2023-08-17T09:59:18;25.40;99.90
2100;DHT22;1055;48.854;9.302;2023-08-17T10:01:47;25.60;99.90
2100;DHT22;1055;48.854;9.302;2023-08-17T10:04:23;25.70;99.90
2100;DHT22;1055;48.854;9.302;2023-08-17T10:06:58;25.50;99.90
2100;DHT22;1055;48.854;9.302;2023-08-17T10:09:25;25.70;99.90
2100;DHT22;1055;48.854;9.302;2023-08-17T10:11:57;25.80;99.90
2100;DHT22;1055;48.854;9.302;2023-08-17T10:14:28;26.00;99.90
2100;DHT22;1055;48.854;9.302;2023-08-17T10:17:01;25.90;99.90
2100;DHT22;1055;48.854;9.302;2023-08-17T10:19:59;25.90;99.90
2100;DHT22;1055;48.854;9.302;2023-08-17T10:22:31;26.10;99.90
2100;DHT22;1055;48.854;9.302;2023-08-17T10:25:00;26.30;99.90
2100;DHT22;1055;48.854;9.302;2023-08-17T10:27:27;26.20;99.90
2100;DHT22;1055;48.854;9.302;2023-08-17T10:29:52;26.20;99.90
2100;DHT22;1055;48.854;9.302;2023-08-17T10:32:21;26.30;99.90
2100;DHT22;1055;48.854;9.302;2023-08-17T10:34:48;26.30;99.90
2100;DHT22;1055;48.854;9.302;2023-08-17T10:37:14;26.40;99.90
2100;DHT22;1055;48.854;9.302;2023-08-17T10:39:48;26.50;99.90
2100;DHT22;1055;48.854;9.302;2023-08-17T10:42:14;26.60;99.90
2100;DHT22;1055;48.854;9.302;2023-08-17T10:44:46;26.70;99.90
2100;DHT22;1055;48.854;9.302;2023-08-17T10:47:31;26.80;99.90
2100;DHT22;1055;48.854;9.302;2023-08-17T10:52:33;27.00;99.90
2100;DHT22;1055;48.854;9.302;2023-08-17T10:55:07;27.20;99.90
2100;DHT22;1055;48.854;9.302;2023-08-17T10:57:37;27.30;99.90
2100;DHT22;1055;48.854;9.302;2023-08-17T11:00:07;27.50;99.90
2100;DHT22;1055;48.854;9.302;2023-08-17T11:02:34;27.50;99.90
2100;DHT22;1055;48.854;9.302;2023-08-17T11:05:03;27.60;99.90
2100;DHT22;1055;48.854;9.302;2023-08-17T11:07:43;27.20;99.90
2100;DHT22;1055;48.854;9.302;2023-08-17T11:10:27;27.60;99.90
2100;DHT22;1055;48.854;9.302;2023-08-17T11:12:54;27.40;99.90
2100;DHT22;1055;48.854;9.302;2023-08-17T11:15:25;27.60;99.90
2100;DHT22;1055;48.854;9.302;2023-08-17T11:17:52;27.60;99.90
2100;DHT22;1055;48.854;9.302;2023-08-17T11:20:18;27.80;99.90
2100;DHT22;1055;48.854;9.302;2023-08-17T11:22:46;28.00;99.90
2100;DHT22;1055;48.854;9.302;2023-08-17T11:25:11;27.80;99.90
2100;DHT22;1055;48.854;9.302;2023-08-17T11:27:37;27.80;99.90
2100;DHT22;1055;48.854;9.302;2023-08-17T11:30:04;28.00;99.90
2100;DHT22;1055;48.854;9.302;2023-08-17T11:32:30;28.10;99.90
2100;DHT22;1055;48.854;9.302;2023-08-17T11:34:55;28.20;99.90
2100;DHT22;1055;48.854;9.302;2023-08-17T11:37:21;27.80;99.90
2100;DHT22;1055;48.854;9.302;2023-08-17T11:39:47;28.00;99.90
2100;DHT22;1055;48.854;9.302;2023-08-17T11:42:13;27.90;99.90
2100;DHT22;1055;48.854;9.302;2023-08-17T11:44:38;27.80;99.90
2100;DHT22;1055;48.854;9.302;2023-08-17T11:47:05;28.00;99.90
2100;DHT22;1055;48.854;9.302;2023-08-17T11:49:32;27.80;99.90
2100;DHT22;1055;48.854;9.302;2023-08-17T11:51:58;27.80;99.90
2100;DHT22;1055;48.854;9.302;2023-08-17T11:54:24;27.60;99.90
2100;DHT22;1055;48.854;9.302;2023-08-17T11:56:50;27.80;99.90
2100;DHT22;1055;48.854;9.302;2023-08-17T11:59:16;27.70;99.90
2100;DHT22;1055;48.854;9.302;2023-08-17T12:01:44;27.70;99.90
2100;DHT22;1055;48.854;9.302;2023-08-17T12:04:10;27.70;99.90
2100;DHT22;1055;48.854;9.302;2023-08-17T12:06:43;27.80;99.90
2100;DHT22;1055;48.854;9.302;2023-08-17T12:09:12;28.10;99.90
2100;DHT22;1055;48.854;9.302;2023-08-17T12:11:41;27.90;99.90
2100;DHT22;1055;48.854;9.302;2023-08-17T12:14:11;27.60;99.90
2100;DHT22;1055;48.854;9.302;2023-08-17T12:16:57;27.40;99.90
2100;DHT22;1055;48.854;9.302;2023-08-17T12:19:25;27.60;99.90
2100;DHT22;1055;48.854;9.302;2023-08-17T12:21:50;27.70;99.90
2100;DHT22;1055;48.854;9.302;2023-08-17T12:24:16;27.70;99.90
2100;DHT22;1055;48.854;9.302;2023-08-17T12:26:45;27.80;99.90
2100;DHT22;1055;48.854;9.302;2023-08-17T12:29:15;28.00;99.90
2100;DHT22;1055;48.854;9.302;2023-08-17T12:31:41;28.10;99.90
2100;DHT22;1055;48.854;9.302;2023-08-17T12:34:07;27.70;99.90
2100;DHT22;1055;48.854;9.302;2023-08-17T12:36:34;27.80;99.90
2100;DHT22;1055;48.854;9.302;2023-08-17T12:39:04;27.90;99.90
2100;DHT22;1055;48.854;9.302;2023-08-17T12:41:30;27.80;99.90
2100;DHT22;1055;48.854;9.302;2023-08-17T12:43:56;28.00;99.90
2100;DHT22;1055;48.854;9.302;2023-08-17T12:46:25;28.00;99.90
2100;DHT22;1055;48.854;9.302;2023-08-17T12:48:50;27.80;99.90
2100;DHT22;1055;48.854;9.302;2023-08-17T12:51:16;28.00;99.90
2100;DHT22;1055;48.854;9.302;2023-08-17T12:53:41;27.80;99.90
2100;DHT22;1055;48.854;9.302;2023-08-17T12:56:08;27.70;99.90
2100;DHT22;1055;48.854;9.302;2023-08-17T12:58:34;27.90;99.90
2100;DHT22;1055;48.854;9.302;2023-08-17T13:01:00;28.10;99.90
2100;DHT22;1055;48.854;9.302;2023-08-17T13:03:25;28.10;99.90
2100;DHT22;1055;48.854;9.302;2023-08-17T13:05:51;27.80;99.90
2100;DHT22;1055;48.854;9.302;2023-08-17T13:08:17;27.70;99.90
2100;DHT22;1055;48.854;9.302;2023-08-17T13:10:42;27.60;99.90
2100;DHT22;1055;48.854;9.302;2023-08-17T13:13:08;27.70;99.90
2100;DHT22;1055;48.854;9.302;2023-08-17T13:15:33;27.60;99.90
2100;DHT22;1055;48.854;9.302;2023-08-17T13:17:59;27.50;99.90
2100;DHT22;1055;48.854;9.302;2023-08-17T13:20:26;27.50;99.90
2100;DHT22;1055;48.854;9.302;2023-08-17T13:22:52;27.40;99.90
2100;DHT22;1055;48.854;9.302;2023-08-17T13:25:17;27.30;99.90
2100;DHT22;1055;48.854;9.302;2023-08-17T13:27:43;27.30;99.90
2100;DHT22;1055;48.854;9.302;2023-08-17T13:30:09;27.40;99.90
2100;DHT22;1055;48.854;9.302;2023-08-17T13:32:35;27.20;99.90
2100;DHT22;1055;48.854;9.302;2023-08-17T13:35:02;27.30;99.90
2100;DHT22;1055;48.854;9.302;2023-08-17T13:37:28;27.20;99.90
2100;DHT22;1055;48.854;9.302;2023-08-17T13:39:54;27.00;99.90
2100;DHT22;1055;48.854;9.302;2023-08-17T13:42:19;27.10;99.90
2100;DHT22;1055;48.854;9.302;2023-08-17T13:44:45;27.00;99.90
2100;DHT22;1055;48.854;9.302;2023-08-17T13:47:11;26.60;99.90
2100;DHT22;1055;48.854;9.302;2023-08-17T13:49:37;26.40;99.90
2100;DHT22;1055;48.854;9.302;2023-08-17T13:52:03;26.40;99.90
2100;DHT22;1055;48.854;9.302;2023-08-17T13:54:28;26.20;99.90
2100;DHT22;1055;48.854;9.302;2023-08-17T13:56:54;25.90;99.90
2100;DHT22;1055;48.854;9.302;2023-08-17T13:59:20;25.70;99.90
2100;DHT22;1055;48.854;9.302;2023-08-17T14:01:46;25.60;99.90
2100;DHT22;1055;48.854;9.302;2023-08-17T14:04:11;25.40;99.90
2100;DHT22;1055;48.854;9.302;2023-08-17T14:06:39;25.20;99.90
2100;DHT22;1055;48.854;9.302;2023-08-17T14:09:06;25.10;99.90
2100;DHT22;1055;48.854;9.302;2023-08-17T14:11:33;25.00;99.90
2100;DHT22;1055;48.854;9.302;2023-08-17T14:14:00;24.70;99.90
2100;DHT22;1055;48.854;9.302;2023-08-17T14:16:27;24.40;99.90
2100;DHT22;1055;48.854;9.302;2023-08-17T14:18:54;24.50;99.90
2100;DHT22;1055;48.854;9.302;2023-08-17T14:21:20;24.60;99.90
2100;DHT22;1055;48.854;9.302;2023-08-17T14:23:47;24.90;99.90
2100;DHT22;1055;48.854;9.302;2023-08-17T14:26:13;24.90;99.90
2100;DHT22;1055;48.854;9.302;2023-08-17T14:28:38;24.60;99.90
2100;DHT22;1055;48.854;9.302;2023-08-17T14:31:04;24.80;99.90
2100;DHT22;1055;48.854;9.302;2023-08-17T14:33:29;24.80;99.90
2100;DHT22;1055;48.854;9.302;2023-08-17T14:35:55;25.10;99.90
2100;DHT22;1055;48.854;9.302;2023-08-17T14:38:21;25.30;99.90
2100;DHT22;1055;48.854;9.302;2023-08-17T14:40:47;25.40;99.90
2100;DHT22;1055;48.854;9.302;2023-08-17T14:43:14;25.50;99.90
2100;DHT22;1055;48.854;9.302;2023-08-17T14:45:43;25.00;99.90
2100;DHT22;1055;48.854;9.302;2023-08-17T14:48:09;24.90;99.90
2100;DHT22;1055;48.854;9.302;2023-08-17T14:50:35;25.20;99.90
2100;DHT22;1055;48.854;9.302;2023-08-17T14:53:02;25.50;99.90
2100;DHT22;1055;48.854;9.302;2023-08-17T14:55:31;25.50;99.90
2100;DHT22;1055;48.854;9.302;2023-08-17T14:57:57;25.50;99.90
2100;DHT22;1055;48.854;9.302;2023-08-17T15:00:24;25.30;99.90
2100;DHT22;1055;48.854;9.302;2023-08-17T15:02:50;25.30;99.90
2100;DHT22;1055;48.854;9.302;2023-08-17T15:05:16;25.10;99.90
2100;DHT22;1055;48.854;9.302;2023-08-17T15:07:46;25.30;99.90
2100;DHT22;1055;48.854;9.302;2023-08-17T15:10:12;25.50;99.90
2100;DHT22;1055;48.854;9.302;2023-08-17T15:12:38;25.70;99.90
2100;DHT22;1055;48.854;9.302;2023-08-17T15:15:03;25.70;99.90
2100;DHT22;1055;48.854;9.302;2023-08-17T15:17:30;25.70;99.90
2100;DHT22;1055;48.854;9.302;2023-08-17T15:19:55;25.80;99.90
2100;DHT22;1055;48.854;9.302;2023-08-17T15:22:22;26.10;99.90
2100;DHT22;1055;48.854;9.302;2023-08-17T15:24:48;25.40;99.90
2100;DHT22;1055;48.854;9.302;2023-08-17T15:27:14;25.70;99.90
2100;DHT22;1055;48.854;9.302;2023-08-17T15:29:39;25.90;99.90
2100;DHT22;1055;48.854;9.302;2023-08-17T15:32:06;25.80;99.90
2100;DHT22;1055;48.854;9.302;2023-08-17T15:34:32;25.50;99.90
2100;DHT22;1055;48.854;9.302;2023-08-17T15:36:58;25.10;99.90
2100;DHT22;1055;48.854;9.302;2023-08-17T15:39:24;25.00;99.90
2100;DHT22;1055;48.854;9.302;2023-08-17T15:41:50;24.90;99.90
2100;DHT22;1055;48.854;9.302;2023-08-17T15:44:15;24.90;99.90
2100;DHT22;1055;48.854;9.302;2023-08-17T15:46:41;24.70;99.90
2100;DHT22;1055;48.854;9.302;2023-08-17T15:49:08;24.70;99.90
2100;DHT22;1055;48.854;9.302;2023-08-17T15:51:33;24.90;99.90
2100;DHT22;1055;48.854;9.302;2023-08-17T15:53:59;25.00;99.90
2100;DHT22;1055;48.854;9.302;2023-08-17T15:56:25;24.90;99.90
2100;DHT22;1055;48.854;9.302;2023-08-17T15:58:50;24.90;99.90
2100;DHT22;1055;48.854;9.302;2023-08-17T16:01:16;25.10;99.90
2100;DHT22;1055;48.854;9.302;2023-08-17T16:03:41;25.00;99.90
2100;DHT22;1055;48.854;9.302;2023-08-17T16:06:07;25.00;99.90
2100;DHT22;1055;48.854;9.302;2023-08-17T16:08:33;25.10;99.90